createdAt,value
2024-03-07T00:04:04.463Z,0.70
2024-03-07T00:09:08.011Z,0.70
2024-03-07T00:14:12.453Z,0.70
2024-03-07T00:19:16.402Z,0.60
2024-03-07T00:24:20.508Z,0.60
2024-03-07T00:29:23.749Z,0.50
2024-03-07T00:34:27.405Z,0.50
2024-03-07T00:39:30.663Z,0.50
2024-03-07T00:44:34.397Z,0.40
2024-03-07T00:49:37.950Z,0.40
2024-03-07T00:54:40.983Z,0.40
2024-03-07T00:59:44.413Z,0.30
2024-03-07T01:04:47.924Z,0.20
2024-03-07T01:09:50.981Z,0.20
2024-03-07T01:14:55.827Z,0.20
2024-03-07T01:19:59.849Z,0.20
2024-03-07T01:25:02.802Z,0.20
2024-03-07T01:30:09.933Z,0.10
2024-03-07T01:35:14.996Z,0.10
2024-03-07T01:40:18.490Z,0.10
2024-03-07T01:45:21.655Z,0.00
2024-03-07T01:50:25.219Z,0.00
2024-03-07T01:55:29.779Z,-0.10
2024-03-07T02:00:32.836Z,-0.10
2024-03-07T02:05:36.237Z,-0.20
2024-03-07T02:10:39.661Z,-0.20
2024-03-07T02:15:44.400Z,-0.10
2024-03-07T02:20:48.144Z,-0.20
2024-03-07T02:25:51.428Z,-0.20
2024-03-07T02:30:54.829Z,-0.20
2024-03-07T02:35:57.891Z,-0.30
2024-03-07T02:41:01.043Z,-0.30
2024-03-07T02:46:04.246Z,-0.40
2024-03-07T02:51:07.408Z,-0.50
2024-03-07T02:56:11.141Z,-0.50
2024-03-07T03:01:14.484Z,-0.50
2024-03-07T03:06:17.699Z,-0.50
2024-03-07T03:11:22.356Z,-0.60
2024-03-07T03:16:38.949Z,-0.60
2024-03-07T03:21:49.259Z,-0.60
2024-03-07T03:26:52.367Z,-0.60
2024-03-07T03:31:56.638Z,-0.60
2024-03-07T03:36:59.859Z,-0.70
2024-03-07T03:42:02.976Z,-0.70
2024-03-07T03:47:06.645Z,-0.80
2024-03-07T03:52:09.986Z,-0.80
2024-03-07T03:57:13.451Z,-0.80
2024-03-07T04:02:18.510Z,-0.70
2024-03-07T04:07:22.301Z,-0.70
2024-03-07T04:12:27.768Z,-0.70
2024-03-07T04:17:32.124Z,-0.80
2024-03-07T04:22:36.329Z,-0.80
2024-03-07T04:27:41.555Z,-0.90
2024-03-07T04:32:45.136Z,-0.90
2024-03-07T04:37:48.792Z,-1.00
2024-03-07T04:42:52.102Z,-1.00
2024-03-07T04:47:55.838Z,-1.10
2024-03-07T04:52:59.236Z,-1.20
2024-03-07T04:58:02.851Z,-1.20
2024-03-07T05:03:06.309Z,-1.20
2024-03-07T05:08:11.869Z,-1.20
2024-03-07T05:13:15.678Z,-1.10
2024-03-07T05:18:19.208Z,-1.10
2024-03-07T05:23:22.723Z,-1.10
2024-03-07T05:28:25.921Z,-1.00
2024-03-07T05:33:29.544Z,-1.00
2024-03-07T05:38:32.780Z,-1.10
2024-03-07T05:43:35.989Z,-1.00
2024-03-07T05:48:39.270Z,-1.00
2024-03-07T05:53:43.537Z,-0.90
2024-03-07T05:58:46.860Z,-0.90
2024-03-07T06:03:50.465Z,-0.80
2024-03-07T06:08:53.592Z,-0.70
2024-03-07T06:13:56.730Z,-0.60
2024-03-07T06:19:04.371Z,-0.50
2024-03-07T06:24:09.019Z,-0.50
2024-03-07T06:29:21.369Z,-0.40
2024-03-07T06:34:25.034Z,-0.30
2024-03-07T06:39:28.918Z,-0.20
2024-03-07T06:44:32.124Z,-0.10
2024-03-07T06:49:35.600Z,0.00
2024-03-07T06:54:39.489Z,0.10
2024-03-07T06:59:42.900Z,0.20
2024-03-07T07:04:49.185Z,0.40
2024-03-07T07:09:54.828Z,0.50
2024-03-07T07:14:58.500Z,0.60
2024-03-07T07:20:01.852Z,0.70
2024-03-07T07:25:06.572Z,0.80
2024-03-07T07:30:11.394Z,0.90
2024-03-07T07:35:14.845Z,1.00
2024-03-07T07:40:19.928Z,1.10
2024-03-07T07:45:24.715Z,1.20
2024-03-07T07:50:28.300Z,1.30
2024-03-07T07:55:32.536Z,1.40
2024-03-07T08:00:37.086Z,1.60
2024-03-07T08:05:40.350Z,1.70
2024-03-07T08:10:45.866Z,1.80
2024-03-07T08:15:50.877Z,1.90
2024-03-07T08:20:56.540Z,2.00
2024-03-07T08:26:01.119Z,2.20
2024-03-07T08:31:06.167Z,2.30
2024-03-07T08:36:11.575Z,2.60
2024-03-07T08:41:15.002Z,2.70
2024-03-07T08:46:18.403Z,2.80
2024-03-07T08:51:22.008Z,3.00
2024-03-07T08:56:25.692Z,3.20
2024-03-07T09:01:29.071Z,3.40
2024-03-07T09:06:33.799Z,3.60
2024-03-07T09:11:38.226Z,3.80
2024-03-07T09:16:42.288Z,3.90
2024-03-07T09:21:47.768Z,4.10
2024-03-07T09:26:54.698Z,4.30
2024-03-07T09:31:59.350Z,4.50
2024-03-07T09:37:02.932Z,4.70
2024-03-07T09:42:12.346Z,4.90
2024-03-07T09:47:16.281Z,5.00
2024-03-07T09:52:21.024Z,5.20
2024-03-07T09:57:25.755Z,5.30
2024-03-07T10:02:30.961Z,5.50
2024-03-07T10:07:36.326Z,5.60
2024-03-07T10:12:40.233Z,5.70
2024-03-07T10:17:47.400Z,5.80
2024-03-07T10:22:52.081Z,6.00
2024-03-07T10:27:56.327Z,6.20
2024-03-07T10:33:02.437Z,6.20
2024-03-07T10:38:15.683Z,6.30
2024-03-07T10:43:22.326Z,6.50
2024-03-07T10:48:31.657Z,6.50
2024-03-07T10:53:59.300Z,6.60
2024-03-07T10:59:21.529Z,6.70
2024-03-07T11:04:25.775Z,6.80
2024-03-07T11:09:34.751Z,6.80
2024-03-07T11:14:39.656Z,6.80
2024-03-07T11:19:43.764Z,6.90
2024-03-07T11:25:08.997Z,7.00
2024-03-07T11:30:13.267Z,7.10
2024-03-07T11:35:16.806Z,7.00
2024-03-07T11:40:26.650Z,7.00
2024-03-07T11:45:31.882Z,7.10
2024-03-07T11:50:37.916Z,7.20
2024-03-07T11:55:49.928Z,7.30
2024-03-07T12:00:54.714Z,7.30
2024-03-07T12:05:59.979Z,7.30
2024-03-07T12:11:04.915Z,7.40
2024-03-07T12:16:09.902Z,7.40
2024-03-07T12:21:14.170Z,7.50
2024-03-07T12:26:26.786Z,7.50
2024-03-07T12:31:33.149Z,7.50
2024-03-07T12:36:46.860Z,7.80
2024-03-07T12:41:50.648Z,7.70
2024-03-07T12:46:57.548Z,7.60
2024-03-07T12:52:02.472Z,7.50
2024-03-07T12:57:07.379Z,7.50
2024-03-07T13:02:16.422Z,7.60
2024-03-07T13:07:20.023Z,7.50
2024-03-07T13:12:23.510Z,7.70
2024-03-07T13:17:27.010Z,7.60
2024-03-07T13:22:31.535Z,7.70
2024-03-07T13:27:36.556Z,7.80
2024-03-07T13:32:42.743Z,7.80
2024-03-07T13:37:48.511Z,7.80
2024-03-07T13:42:57.687Z,7.90
2024-03-07T13:48:01.964Z,8.00
2024-03-07T13:53:08.359Z,7.90
2024-03-07T13:58:19.438Z,7.90
2024-03-07T14:03:31.199Z,7.80
2024-03-07T14:09:15.373Z,7.80
2024-03-07T14:14:51.473Z,7.90
2024-03-07T14:19:57.702Z,8.10
2024-03-07T14:25:33.812Z,8.30
2024-03-07T14:30:58.387Z,8.40
2024-03-07T14:36:07.525Z,8.30
2024-03-07T14:41:14.239Z,8.40
2024-03-07T14:46:19.608Z,8.30
2024-03-07T14:51:23.650Z,8.10
2024-03-07T14:56:27.809Z,8.20
2024-03-07T15:01:32.647Z,8.20
2024-03-07T15:06:36.401Z,8.30
2024-03-07T15:11:41.962Z,8.20
2024-03-07T15:16:45.548Z,8.20
2024-03-07T15:21:49.306Z,8.20
2024-03-07T15:26:52.461Z,8.10
2024-03-07T15:31:55.835Z,7.80
2024-03-07T15:37:03.747Z,7.70
2024-03-07T15:42:10.908Z,7.80
2024-03-07T15:47:15.163Z,7.60
2024-03-07T15:52:19.944Z,7.40
2024-03-07T15:57:23.762Z,6.90
2024-03-07T16:02:27.075Z,6.60
2024-03-07T16:07:30.240Z,6.40
2024-03-07T16:12:34.930Z,6.30
2024-03-07T16:17:38.844Z,6.10
2024-03-07T16:22:48.786Z,5.90
2024-03-07T16:27:52.749Z,5.70
2024-03-07T16:33:01.954Z,5.60
2024-03-07T16:38:06.611Z,5.50
2024-03-07T16:43:13.929Z,5.30
2024-03-07T16:48:18.339Z,5.20
2024-03-07T16:53:21.909Z,5.00
2024-03-07T16:58:25.826Z,4.90
2024-03-07T17:03:29.406Z,4.80
2024-03-07T17:08:35.443Z,4.60
2024-03-07T17:13:38.752Z,4.50
2024-03-07T17:18:42.712Z,4.40
2024-03-07T17:23:46.661Z,4.20
2024-03-07T17:28:50.461Z,4.10
2024-03-07T17:33:54.455Z,3.90
2024-03-07T17:38:58.076Z,3.80
2024-03-07T17:44:01.833Z,3.60
2024-03-07T17:49:06.329Z,3.50
2024-03-07T17:54:12.969Z,3.30
2024-03-07T17:59:20.848Z,3.10
2024-03-07T18:04:25.761Z,3.10
2024-03-07T18:09:29.567Z,2.80
2024-03-07T18:14:35.156Z,2.80
2024-03-07T18:19:38.912Z,2.80
2024-03-07T18:24:46.836Z,2.60
2024-03-07T18:29:49.992Z,2.60
2024-03-07T18:34:55.169Z,2.50
2024-03-07T18:40:00.038Z,2.40
2024-03-07T18:45:11.445Z,2.30
2024-03-07T18:50:18.765Z,2.40
2024-03-07T18:55:31.411Z,2.40
2024-03-07T19:00:38.640Z,2.30
2024-03-07T19:05:47.906Z,2.30
2024-03-07T19:10:54.980Z,2.30
2024-03-07T19:16:02.463Z,2.20
2024-03-07T19:21:12.103Z,2.20
2024-03-07T19:26:18.060Z,2.10
2024-03-07T19:31:23.118Z,2.10
2024-03-07T19:36:28.260Z,2.00
2024-03-07T19:41:32.873Z,1.90
2024-03-07T19:46:36.574Z,1.90
2024-03-07T19:51:43.516Z,1.80
2024-03-07T19:56:48.586Z,1.80
2024-03-07T20:01:53.196Z,1.70
2024-03-07T20:07:00.422Z,1.70
2024-03-07T20:12:08.852Z,1.70
2024-03-07T20:17:13.764Z,1.60
2024-03-07T20:22:20.476Z,1.50
2024-03-07T20:27:25.064Z,1.50
2024-03-07T20:32:30.329Z,1.40
2024-03-07T20:37:38.018Z,1.40
2024-03-07T20:42:43.605Z,1.30
2024-03-07T20:47:50.042Z,1.30
2024-03-07T20:52:54.934Z,1.20
2024-03-07T20:58:03.284Z,1.20
2024-03-07T21:03:08.707Z,1.10
2024-03-07T21:08:12.956Z,1.10
2024-03-07T21:13:18.842Z,1.10
2024-03-07T21:18:24.986Z,1.00
2024-03-07T21:23:29.085Z,1.00
2024-03-07T21:28:33.999Z,0.90
2024-03-07T21:33:37.476Z,0.90
2024-03-07T21:38:41.199Z,0.80
2024-03-07T21:43:44.640Z,0.80
2024-03-07T21:48:50.006Z,0.70
2024-03-07T21:53:54.862Z,0.70
2024-03-07T21:59:01.775Z,0.60
2024-03-07T22:04:06.622Z,0.60
2024-03-07T22:09:09.975Z,0.50
2024-03-07T22:14:13.705Z,0.40
2024-03-07T22:19:17.812Z,0.30
2024-03-07T22:24:20.990Z,0.20
2024-03-07T22:29:24.546Z,0.10
2024-03-07T22:34:27.851Z,0.10
2024-03-07T22:39:32.999Z,-0.10
2024-03-07T22:44:36.710Z,-0.10
2024-03-07T22:49:40.190Z,-0.20
2024-03-07T22:54:43.259Z,-0.30
2024-03-07T22:59:47.019Z,-0.30
2024-03-07T23:04:50.140Z,-0.40
2024-03-07T23:09:54.277Z,-0.40
2024-03-07T23:15:00.340Z,-0.40
2024-03-07T23:20:05.268Z,-0.50
2024-03-07T23:25:08.774Z,-0.50
2024-03-07T23:30:13.881Z,-0.60
2024-03-07T23:35:18.798Z,-0.70
2024-03-07T23:40:28.147Z,-0.80
2024-03-07T23:45:31.840Z,-0.90
2024-03-07T23:50:34.966Z,-0.90
2024-03-07T23:55:38.486Z,-1.10
